TimeEST,TemperatureF,Dew PointF,Humidity,Sea Level PressureIn,VisibilityMPH,Wind Direction,Wind SpeedMPH,Gust SpeedMPH,PrecipitationIn,Events,Conditions,WindDirDegrees,DateUTC
12:12 AM,24.8,19.4,80,30.24,10.0,East,9.2,-,N/A,,Overcast,90,2013-02-22 05:12:00
12:32 AM,24.8,19.4,80,30.21,10.0,East,10.4,18.4,N/A,,Overcast,100,2013-02-22 05:32:00
12:53 AM,24.8,19.4,80,30.23,10.0,ESE,13.8,20.7,N/A,,Overcast,110,2013-02-22 05:53:00
1:13 AM,24.8,19.4,80,30.23,10.0,ESE,15.0,23.0,N/A,,Overcast,110,2013-02-22 06:13:00
1:33 AM,24.8,19.4,80,30.22,10.0,ESE,12.7,18.4,N/A,,Overcast,110,2013-02-22 06:33:00
1:53 AM,24.8,19.4,80,30.21,10.0,East,15.0,21.9,N/A,,Overcast,100,2013-02-22 06:53:00
2:13 AM,24.8,19.4,80,30.21,10.0,East,11.5,20.7,N/A,,Overcast,100,2013-02-22 07:13:00
2:33 AM,24.8,19.4,80,30.19,10.0,East,13.8,20.7,N/A,,Overcast,100,2013-02-22 07:33:00
2:53 AM,24.8,19.4,80,30.17,10.0,East,16.1,-,N/A,,Overcast,90,2013-02-22 07:53:00
3:13 AM,24.8,21.2,86,30.15,10.0,East,15.0,20.7,N/A,,Overcast,80,2013-02-22 08:13:00
3:33 AM,24.8,21.2,86,30.13,10.0,East,18.4,24.2,N/A,,Overcast,80,2013-02-22 08:33:00
3:53 AM,24.8,21.2,86,30.09,10.0,East,19.6,26.5,N/A,,Overcast,80,2013-02-22 08:53:00
4:14 AM,24.8,21.2,86,30.08,10.0,East,20.7,26.5,N/A,,Overcast,90,2013-02-22 09:14:00
4:34 AM,24.8,21.2,86,30.07,10.0,East,16.1,23.0,N/A,,Overcast,80,2013-02-22 09:34:00
4:54 AM,24.8,21.2,86,30.07,10.0,East,11.5,21.9,N/A,,Overcast,100,2013-02-22 09:54:00
5:14 AM,26.6,21.2,80,30.05,10.0,East,18.4,28.8,N/A,,Overcast,90,2013-02-22 10:14:00
5:34 AM,26.6,21.2,80,30.04,10.0,East,17.3,27.6,N/A,,Overcast,100,2013-02-22 10:34:00
5:54 AM,26.6,19.4,74,30.05,1.0,East,19.6,27.6,N/A,Snow,Light Snow,90,2013-02-22 10:54:00
6:14 AM,24.8,21.2,86,30.05,2.0,East,15.0,23.0,N/A,Snow,Light Snow,100,2013-02-22 11:14:00
6:34 AM,24.8,23.0,93,30.02,0.8,East,15.0,23.0,N/A,Snow,Snow,90,2013-02-22 11:34:00
6:54 AM,24.8,23.0,93,29.99,0.8,East,18.4,25.3,N/A,Snow,Snow,80,2013-02-22 11:54:00
7:15 AM,24.8,23.0,93,29.99,0.8,East,16.1,21.9,N/A,Snow,Snow,80,2013-02-22 12:15:00
7:35 AM,24.8,23.0,93,29.99,1.2,East,15.0,21.9,N/A,Snow,Light Snow,90,2013-02-22 12:35:00
7:55 AM,24.8,23.0,93,29.98,0.5,East,17.3,26.5,N/A,Snow,Light Snow,90,2013-02-22 12:55:00
8:15 AM,24.8,24.8,100,29.97,0.2,East,15.0,24.2,N/A,Snow,Snow,90,2013-02-22 13:15:00
8:35 AM,24.8,24.8,100,29.97,0.5,East,15.0,20.7,N/A,Snow,Light Snow,90,2013-02-22 13:35:00
8:55 AM,26.6,24.8,93,29.97,0.2,East,12.7,17.3,N/A,Snow,Snow,90,2013-02-22 13:55:00
9:15 AM,26.6,24.8,93,29.97,1.0,East,10.4,-,N/A,Snow,Light Snow,90,2013-02-22 14:15:00
9:35 AM,26.6,24.8,93,29.96,1.2,East,10.4,20.7,N/A,Snow,Light Snow,90,2013-02-22 14:35:00
9:55 AM,28.4,26.6,93,29.96,1.5,East,11.5,-,N/A,Snow,Light Snow,90,2013-02-22 14:55:00
10:16 AM,28.4,26.6,93,29.94,1.5,East,10.4,-,N/A,Snow,Light Snow,90,2013-02-22 15:16:00
10:31 AM,28.4,26.6,93,29.93,2.0,East,11.5,-,N/A,Snow,Light Snow,100,2013-02-22 15:31:00
10:51 AM,28.4,26.6,93,29.93,3.0,East,11.5,18.4,N/A,Snow,Light Snow,100,2013-02-22 15:51:00
11:11 AM,28.4,28.4,100,29.91,3.0,East,11.5,-,N/A,Snow,Light Snow,100,2013-02-22 16:11:00
11:31 AM,30.2,28.4,93,29.92,3.0,ESE,8.1,11.5,N/A,,Overcast,110,2013-02-22 16:31:00
11:51 AM,30.2,28.4,93,29.91,5.0,ESE,10.4,-,N/A,,Overcast,110,2013-02-22 16:51:00
12:11 PM,30.2,30.2,100,29.91,2.5,ESE,9.2,-,N/A,,Overcast,110,2013-02-22 17:11:00
12:31 PM,30.2,30.2,100,29.90,2.5,ESE,8.1,-,N/A,,Overcast,120,2013-02-22 17:31:00
12:51 PM,32.0,30.2,93,29.90,2.5,ESE,4.6,-,N/A,,Overcast,110,2013-02-22 17:51:00
1:12 PM,32.0,30.2,93,29.89,2.5,ESE,3.5,-,N/A,,Overcast,120,2013-02-22 18:12:00
1:32 PM,32.0,30.2,93,29.88,1.8,ESE,4.6,-,N/A,,Overcast,120,2013-02-22 18:32:00
2:12 PM,33.8,32.0,93,29.88,1.0,SE,4.6,-,N/A,,Overcast,140,2013-02-22 19:12:00
2:32 PM,33.8,32.0,93,29.88,1.5,SE,4.6,-,N/A,,Overcast,130,2013-02-22 19:32:00
2:52 PM,33.8,32.0,93,29.87,1.5,SE,3.5,-,N/A,,Overcast,140,2013-02-22 19:52:00
3:12 PM,33.8,32.0,93,29.87,1.5,SSE,4.6,-,N/A,,Overcast,150,2013-02-22 20:12:00
3:32 PM,33.8,33.8,100,29.87,1.0,SE,4.6,-,N/A,,Overcast,140,2013-02-22 20:32:00
3:52 PM,33.8,33.8,100,29.87,0.8,SSE,3.5,-,N/A,,Overcast,160,2013-02-22 20:52:00
4:12 PM,33.8,33.8,100,29.87,0.8,Calm,Calm,-,N/A,,Overcast,0,2013-02-22 21:12:00
4:33 PM,33.8,33.8,100,29.88,0.5,Calm,Calm,-,N/A,Fog,Fog,0,2013-02-22 21:33:00
4:53 PM,33.8,33.8,100,29.88,0.5,South,3.5,-,N/A,Fog,Fog,170,2013-02-22 21:53:00
5:13 PM,33.8,33.8,100,29.88,0.2,South,3.5,-,N/A,Fog,Fog,170,2013-02-22 22:13:00
5:33 PM,33.8,33.8,100,29.88,0.2,South,3.5,-,N/A,Fog,Fog,180,2013-02-22 22:33:00
5:53 PM,33.8,33.8,100,29.88,0.2,South,3.5,-,N/A,Fog,Fog,170,2013-02-22 22:53:00
6:13 PM,35.6,35.6,100,29.89,0.5,South,4.6,-,N/A,Fog,Fog,190,2013-02-22 23:13:00
6:33 PM,35.6,35.6,100,29.89,2.5,South,3.5,-,N/A,,Overcast,180,2013-02-22 23:33:00
6:53 PM,35.6,35.6,100,29.90,4.0,SSW,5.8,-,N/A,,Overcast,200,2013-02-22 23:53:00
7:13 PM,37.4,35.6,93,29.90,5.0,SSW,6.9,-,N/A,,Overcast,210,2013-02-23 00:13:00
7:33 PM,37.4,35.6,93,29.90,7.0,SSW,9.2,-,N/A,,Overcast,210,2013-02-23 00:33:00
7:54 PM,37.4,33.8,87,29.90,7.0,SSW,9.2,-,N/A,,Overcast,200,2013-02-23 00:54:00
8:14 PM,37.4,33.8,87,29.90,10.0,SSW,8.1,-,N/A,,Overcast,210,2013-02-23 01:14:00
8:34 PM,37.4,33.8,87,29.90,10.0,SW,11.5,16.1,N/A,,Overcast,220,2013-02-23 01:34:00
8:54 PM,37.4,33.8,87,29.90,10.0,SW,8.1,-,N/A,,Overcast,220,2013-02-23 01:54:00
9:14 PM,37.4,33.8,87,29.91,10.0,SW,10.4,-,N/A,,Overcast,220,2013-02-23 02:14:00
9:34 PM,35.6,33.8,93,29.91,10.0,SSW,9.2,-,N/A,,Overcast,210,2013-02-23 02:34:00
9:54 PM,35.6,33.8,93,29.91,10.0,SSW,8.1,-,N/A,,Overcast,210,2013-02-23 02:54:00
10:14 PM,35.6,33.8,93,29.91,10.0,SW,10.4,-,N/A,,Overcast,220,2013-02-23 03:14:00
10:34 PM,35.6,32.0,87,29.91,10.0,SSW,6.9,-,N/A,,Overcast,210,2013-02-23 03:34:00
10:55 PM,35.6,32.0,87,29.91,10.0,SSW,9.2,-,N/A,,Overcast,200,2013-02-23 03:55:00
11:15 PM,35.6,33.8,93,29.90,10.0,SSW,8.1,-,N/A,,Overcast,210,2013-02-23 04:15:00
11:35 PM,35.6,33.8,93,29.90,10.0,SSW,6.9,-,N/A,,Overcast,210,2013-02-23 04:35:00
11:55 PM,35.6,32.0,87,29.90,10.0,SW,5.8,-,N/A,,Overcast,220,2013-02-23 04:55:00